sensor_id;sensor_type;location;lat;lon;timestamp;P1;durP1;ratioP1;P2;durP2;ratioP2
19006;SDS011;9636;47.382;8.480;2023-07-08T00:01:08;8.98;;;5.75;;
19006;SDS011;9636;47.382;8.480;2023-07-08T00:03:40;8.20;;;5.15;;
19006;SDS011;9636;47.382;8.480;2023-07-08T00:06:10;7.60;;;5.00;;
19006;SDS011;9636;47.382;8.480;2023-07-08T00:08:44;11.32;;;6.00;;
19006;SDS011;9636;47.382;8.480;2023-07-08T00:11:12;12.40;;;5.50;;
19006;SDS011;9636;47.382;8.480;2023-07-08T00:13:41;9.45;;;5.43;;
19006;SDS011;9636;47.382;8.480;2023-07-08T00:16:10;10.30;;;5.38;;
19006;SDS011;9636;47.382;8.480;2023-07-08T00:18:37;9.68;;;6.03;;
19006;SDS011;9636;47.382;8.480;2023-07-08T00:21:07;11.63;;;6.10;;
19006;SDS011;9636;47.382;8.480;2023-07-08T00:23:35;10.20;;;5.88;;
19006;SDS011;9636;47.382;8.480;2023-07-08T00:26:07;12.98;;;5.82;;
19006;SDS011;9636;47.382;8.480;2023-07-08T00:28:40;12.88;;;6.03;;
19006;SDS011;9636;47.382;8.480;2023-07-08T00:31:08;10.50;;;6.00;;
19006;SDS011;9636;47.382;8.480;2023-07-08T00:33:36;8.88;;;6.10;;
19006;SDS011;9636;47.382;8.480;2023-07-08T00:36:07;9.90;;;6.10;;
19006;SDS011;9636;47.382;8.480;2023-07-08T00:38:37;10.85;;;6.03;;
19006;SDS011;9636;47.382;8.480;2023-07-08T00:41:11;12.32;;;6.68;;
19006;SDS011;9636;47.382;8.480;2023-07-08T00:43:43;10.00;;;6.35;;
19006;SDS011;9636;47.382;8.480;2023-07-08T00:46:15;11.50;;;6.35;;
19006;SDS011;9636;47.382;8.480;2023-07-08T00:48:52;9.73;;;6.10;;
19006;SDS011;9636;47.382;8.480;2023-07-08T00:51:23;9.45;;;5.47;;
19006;SDS011;9636;47.382;8.480;2023-07-08T00:53:50;8.18;;;5.68;;
19006;SDS011;9636;47.382;8.480;2023-07-08T00:56:21;9.35;;;5.50;;
19006;SDS011;9636;47.382;8.480;2023-07-08T00:58:52;9.32;;;5.20;;
19006;SDS011;9636;47.382;8.480;2023-07-08T01:01:23;12.18;;;5.40;;
19006;SDS011;9636;47.382;8.480;2023-07-08T01:03:52;8.52;;;5.70;;
19006;SDS011;9636;47.382;8.480;2023-07-08T01:06:22;11.60;;;5.72;;
19006;SDS011;9636;47.382;8.480;2023-07-08T01:08:56;10.40;;;5.68;;
19006;SDS011;9636;47.382;8.480;2023-07-08T01:11:29;13.82;;;5.00;;
19006;SDS011;9636;47.382;8.480;2023-07-08T01:13:57;10.20;;;5.28;;
19006;SDS011;9636;47.382;8.480;2023-07-08T01:16:28;9.35;;;5.03;;
19006;SDS011;9636;47.382;8.480;2023-07-08T01:18:58;10.40;;;5.75;;
19006;SDS011;9636;47.382;8.480;2023-07-08T01:21:28;9.73;;;5.50;;
19006;SDS011;9636;47.382;8.480;2023-07-08T01:24:01;13.90;;;4.90;;
19006;SDS011;9636;47.382;8.480;2023-07-08T01:26:30;9.55;;;4.78;;
19006;SDS011;9636;47.382;8.480;2023-07-08T01:29:00;8.77;;;4.57;;
19006;SDS011;9636;47.382;8.480;2023-07-08T01:31:29;11.38;;;5.20;;
19006;SDS011;9636;47.382;8.480;2023-07-08T01:33:58;9.75;;;5.10;;
19006;SDS011;9636;47.382;8.480;2023-07-08T01:36:26;10.52;;;5.00;;
19006;SDS011;9636;47.382;8.480;2023-07-08T01:39:02;6.85;;;4.57;;
19006;SDS011;9636;47.382;8.480;2023-07-08T01:41:29;7.35;;;3.85;;
19006;SDS011;9636;47.382;8.480;2023-07-08T01:43:57;6.43;;;3.90;;
19006;SDS011;9636;47.382;8.480;2023-07-08T01:46:24;7.97;;;4.20;;
19006;SDS011;9636;47.382;8.480;2023-07-08T01:48:54;12.20;;;4.72;;
19006;SDS011;9636;47.382;8.480;2023-07-08T01:51:24;6.85;;;4.20;;
19006;SDS011;9636;47.382;8.480;2023-07-08T01:53:53;6.97;;;4.28;;
19006;SDS011;9636;47.382;8.480;2023-07-08T01:56:23;6.47;;;4.28;;
19006;SDS011;9636;47.382;8.480;2023-07-08T01:58:51;7.05;;;4.30;;
19006;SDS011;9636;47.382;8.480;2023-07-08T02:01:17;10.23;;;4.20;;
19006;SDS011;9636;47.382;8.480;2023-07-08T02:03:44;10.10;;;4.28;;
19006;SDS011;9636;47.382;8.480;2023-07-08T02:06:12;6.15;;;4.03;;
19006;SDS011;9636;47.382;8.480;2023-07-08T02:08:39;5.22;;;3.60;;
19006;SDS011;9636;47.382;8.480;2023-07-08T02:11:06;6.68;;;3.88;;
19006;SDS011;9636;47.382;8.480;2023-07-08T02:13:35;7.22;;;3.90;;
19006;SDS011;9636;47.382;8.480;2023-07-08T02:16:02;6.72;;;3.80;;
19006;SDS011;9636;47.382;8.480;2023-07-08T02:18:32;8.73;;;3.85;;
19006;SDS011;9636;47.382;8.480;2023-07-08T02:20:59;6.85;;;4.07;;
19006;SDS011;9636;47.382;8.480;2023-07-08T02:23:26;7.88;;;3.78;;
19006;SDS011;9636;47.382;8.480;2023-07-08T02:25:54;7.60;;;3.67;;
19006;SDS011;9636;47.382;8.480;2023-07-08T02:28:21;4.82;;;3.30;;
19006;SDS011;9636;47.382;8.480;2023-07-08T02:30:50;5.85;;;3.53;;
19006;SDS011;9636;47.382;8.480;2023-07-08T02:33:17;5.45;;;3.45;;
19006;SDS011;9636;47.382;8.480;2023-07-08T02:35:45;5.60;;;3.78;;
19006;SDS011;9636;47.382;8.480;2023-07-08T02:38:12;8.43;;;3.90;;
19006;SDS011;9636;47.382;8.480;2023-07-08T02:40:39;5.55;;;3.80;;
19006;SDS011;9636;47.382;8.480;2023-07-08T02:43:06;8.32;;;4.53;;
19006;SDS011;9636;47.382;8.480;2023-07-08T02:45:33;5.88;;;4.00;;
19006;SDS011;9636;47.382;8.480;2023-07-08T02:48:02;9.60;;;4.32;;
19006;SDS011;9636;47.382;8.480;2023-07-08T02:50:29;7.22;;;3.83;;
19006;SDS011;9636;47.382;8.480;2023-07-08T02:52:58;7.78;;;4.30;;
19006;SDS011;9636;47.382;8.480;2023-07-08T02:55:24;6.80;;;4.50;;
19006;SDS011;9636;47.382;8.480;2023-07-08T02:57:52;7.50;;;4.45;;
19006;SDS011;9636;47.382;8.480;2023-07-08T03:00:19;7.60;;;4.50;;
19006;SDS011;9636;47.382;8.480;2023-07-08T03:02:46;7.72;;;4.20;;
19006;SDS011;9636;47.382;8.480;2023-07-08T03:05:16;7.35;;;4.20;;
19006;SDS011;9636;47.382;8.480;2023-07-08T03:07:43;6.85;;;4.18;;
19006;SDS011;9636;47.382;8.480;2023-07-08T03:10:09;6.45;;;4.05;;
19006;SDS011;9636;47.382;8.480;2023-07-08T03:12:36;6.93;;;3.90;;
19006;SDS011;9636;47.382;8.480;2023-07-08T03:15:05;7.13;;;4.20;;
19006;SDS011;9636;47.382;8.480;2023-07-08T03:17:32;6.95;;;3.92;;
19006;SDS011;9636;47.382;8.480;2023-07-08T03:19:59;7.50;;;3.83;;
19006;SDS011;9636;47.382;8.480;2023-07-08T03:22:29;7.93;;;3.83;;
19006;SDS011;9636;47.382;8.480;2023-07-08T03:24:56;7.90;;;3.38;;
19006;SDS011;9636;47.382;8.480;2023-07-08T03:27:23;8.10;;;3.92;;
19006;SDS011;9636;47.382;8.480;2023-07-08T03:29:50;5.20;;;3.83;;
19006;SDS011;9636;47.382;8.480;2023-07-08T03:32:17;5.78;;;3.75;;
19006;SDS011;9636;47.382;8.480;2023-07-08T03:34:44;5.45;;;3.22;;
19006;SDS011;9636;47.382;8.480;2023-07-08T03:37:11;5.70;;;3.65;;
19006;SDS011;9636;47.382;8.480;2023-07-08T03:39:40;6.28;;;2.97;;
19006;SDS011;9636;47.382;8.480;2023-07-08T03:42:07;8.23;;;3.45;;
19006;SDS011;9636;47.382;8.480;2023-07-08T03:44:34;7.57;;;3.63;;
19006;SDS011;9636;47.382;8.480;2023-07-08T03:47:02;5.57;;;3.55;;
19006;SDS011;9636;47.382;8.480;2023-07-08T03:49:29;5.05;;;3.33;;
19006;SDS011;9636;47.382;8.480;2023-07-08T03:51:57;6.28;;;3.78;;
19006;SDS011;9636;47.382;8.480;2023-07-08T03:54:24;5.43;;;3.33;;
19006;SDS011;9636;47.382;8.480;2023-07-08T03:56:54;3.85;;;2.90;;
19006;SDS011;9636;47.382;8.480;2023-07-08T03:59:21;5.50;;;3.00;;
19006;SDS011;9636;47.382;8.480;2023-07-08T04:01:48;6.90;;;3.15;;
19006;SDS011;9636;47.382;8.480;2023-07-08T04:04:15;3.90;;;2.75;;
19006;SDS011;9636;47.382;8.480;2023-07-08T04:06:42;5.32;;;2.88;;
19006;SDS011;9636;47.382;8.480;2023-07-08T04:09:10;4.55;;;3.15;;
19006;SDS011;9636;47.382;8.480;2023-07-08T04:11:37;4.93;;;3.05;;
19006;SDS011;9636;47.382;8.480;2023-07-08T04:14:05;4.80;;;2.90;;
19006;SDS011;9636;47.382;8.480;2023-07-08T04:16:43;6.53;;;3.13;;
19006;SDS011;9636;47.382;8.480;2023-07-08T04:19:14;4.72;;;2.80;;
19006;SDS011;9636;47.382;8.480;2023-07-08T04:21:42;6.53;;;3.40;;
19006;SDS011;9636;47.382;8.480;2023-07-08T04:24:12;4.88;;;2.80;;
19006;SDS011;9636;47.382;8.480;2023-07-08T04:26:40;5.55;;;3.40;;
19006;SDS011;9636;47.382;8.480;2023-07-08T04:29:11;3.95;;;3.05;;
19006;SDS011;9636;47.382;8.480;2023-07-08T04:31:40;5.80;;;2.78;;
19006;SDS011;9636;47.382;8.480;2023-07-08T04:34:07;5.70;;;2.70;;
19006;SDS011;9636;47.382;8.480;2023-07-08T04:36:35;4.70;;;3.17;;
19006;SDS011;9636;47.382;8.480;2023-07-08T04:39:03;3.15;;;2.40;;
19006;SDS011;9636;47.382;8.480;2023-07-08T04:41:30;3.63;;;2.60;;
19006;SDS011;9636;47.382;8.480;2023-07-08T04:43:58;3.63;;;2.30;;
19006;SDS011;9636;47.382;8.480;2023-07-08T04:46:30;4.07;;;2.30;;
19006;SDS011;9636;47.382;8.480;2023-07-08T04:49:02;5.07;;;2.58;;
19006;SDS011;9636;47.382;8.480;2023-07-08T04:51:30;4.05;;;2.70;;
19006;SDS011;9636;47.382;8.480;2023-07-08T04:53:58;3.20;;;2.20;;
19006;SDS011;9636;47.382;8.480;2023-07-08T04:56:25;5.22;;;2.30;;
19006;SDS011;9636;47.382;8.480;2023-07-08T04:58:52;3.50;;;2.38;;
19006;SDS011;9636;47.382;8.480;2023-07-08T05:01:19;3.75;;;2.22;;
19006;SDS011;9636;47.382;8.480;2023-07-08T05:03:48;3.30;;;2.10;;
19006;SDS011;9636;47.382;8.480;2023-07-08T05:06:15;3.90;;;2.05;;
19006;SDS011;9636;47.382;8.480;2023-07-08T05:08:42;3.88;;;1.63;;
19006;SDS011;9636;47.382;8.480;2023-07-08T05:11:09;3.72;;;2.05;;
19006;SDS011;9636;47.382;8.480;2023-07-08T05:13:36;2.55;;;1.70;;
19006;SDS011;9636;47.382;8.480;2023-07-08T05:16:03;2.15;;;1.70;;
19006;SDS011;9636;47.382;8.480;2023-07-08T05:18:30;3.88;;;1.85;;
19006;SDS011;9636;47.382;8.480;2023-07-08T05:20:59;2.38;;;1.80;;
19006;SDS011;9636;47.382;8.480;2023-07-08T05:23:26;3.53;;;1.80;;
19006;SDS011;9636;47.382;8.480;2023-07-08T05:25:53;3.47;;;1.77;;
19006;SDS011;9636;47.382;8.480;2023-07-08T05:28:20;2.88;;;1.48;;
19006;SDS011;9636;47.382;8.480;2023-07-08T05:30:51;2.80;;;1.75;;
19006;SDS011;9636;47.382;8.480;2023-07-08T05:33:19;3.00;;;1.55;;
19006;SDS011;9636;47.382;8.480;2023-07-08T05:35:46;2.38;;;1.80;;
19006;SDS011;9636;47.382;8.480;2023-07-08T05:38:15;3.33;;;1.52;;
19006;SDS011;9636;47.382;8.480;2023-07-08T05:40:43;2.65;;;1.67;;
19006;SDS011;9636;47.382;8.480;2023-07-08T05:43:14;1.85;;;1.60;;
19006;SDS011;9636;47.382;8.480;2023-07-08T05:45:41;2.83;;;1.85;;
19006;SDS011;9636;47.382;8.480;2023-07-08T05:48:09;3.30;;;1.50;;
19006;SDS011;9636;47.382;8.480;2023-07-08T05:50:36;3.55;;;1.92;;
19006;SDS011;9636;47.382;8.480;2023-07-08T05:53:03;1.60;;;1.38;;
19006;SDS011;9636;47.382;8.480;2023-07-08T05:55:32;4.18;;;1.67;;
19006;SDS011;9636;47.382;8.480;2023-07-08T05:57:59;2.42;;;1.65;;
19006;SDS011;9636;47.382;8.480;2023-07-08T06:00:26;2.50;;;1.77;;
19006;SDS011;9636;47.382;8.480;2023-07-08T06:02:53;3.20;;;1.77;;
19006;SDS011;9636;47.382;8.480;2023-07-08T06:05:20;3.22;;;1.88;;
19006;SDS011;9636;47.382;8.480;2023-07-08T06:07:47;4.05;;;1.85;;
19006;SDS011;9636;47.382;8.480;2023-07-08T06:10:14;3.55;;;2.05;;
19006;SDS011;9636;47.382;8.480;2023-07-08T06:12:43;2.30;;;2.00;;
19006;SDS011;9636;47.382;8.480;2023-07-08T06:15:10;3.50;;;1.80;;
19006;SDS011;9636;47.382;8.480;2023-07-08T06:17:38;3.05;;;2.10;;
19006;SDS011;9636;47.382;8.480;2023-07-08T06:20:05;5.18;;;1.95;;
19006;SDS011;9636;47.382;8.480;2023-07-08T06:22:33;3.63;;;2.20;;
19006;SDS011;9636;47.382;8.480;2023-07-08T06:25:00;4.18;;;1.98;;
19006;SDS011;9636;47.382;8.480;2023-07-08T06:27:27;3.45;;;2.05;;
19006;SDS011;9636;47.382;8.480;2023-07-08T06:29:56;3.05;;;2.00;;
19006;SDS011;9636;47.382;8.480;2023-07-08T06:32:23;4.07;;;2.30;;
19006;SDS011;9636;47.382;8.480;2023-07-08T06:34:50;2.50;;;1.88;;
19006;SDS011;9636;47.382;8.480;2023-07-08T06:37:17;4.10;;;1.90;;
19006;SDS011;9636;47.382;8.480;2023-07-08T06:39:44;3.58;;;2.13;;
19006;SDS011;9636;47.382;8.480;2023-07-08T06:42:11;3.63;;;2.10;;
19006;SDS011;9636;47.382;8.480;2023-07-08T06:44:40;2.55;;;1.98;;
19006;SDS011;9636;47.382;8.480;2023-07-08T06:47:17;3.22;;;2.13;;
19006;SDS011;9636;47.382;8.480;2023-07-08T06:49:46;3.65;;;2.10;;
19006;SDS011;9636;47.382;8.480;2023-07-08T06:52:16;2.33;;;1.70;;
19006;SDS011;9636;47.382;8.480;2023-07-08T06:54:42;5.13;;;2.30;;
19006;SDS011;9636;47.382;8.480;2023-07-08T06:57:09;4.35;;;2.20;;
19006;SDS011;9636;47.382;8.480;2023-07-08T06:59:36;3.10;;;1.90;;
19006;SDS011;9636;47.382;8.480;2023-07-08T07:02:05;6.45;;;2.30;;
19006;SDS011;9636;47.382;8.480;2023-07-08T07:04:33;2.58;;;2.10;;
19006;SDS011;9636;47.382;8.480;2023-07-08T07:07:01;5.30;;;2.38;;
19006;SDS011;9636;47.382;8.480;2023-07-08T07:09:29;4.35;;;2.40;;
19006;SDS011;9636;47.382;8.480;2023-07-08T07:11:56;3.90;;;2.20;;
19006;SDS011;9636;47.382;8.480;2023-07-08T07:14:22;3.58;;;2.58;;
19006;SDS011;9636;47.382;8.480;2023-07-08T07:16:50;2.88;;;2.05;;
19006;SDS011;9636;47.382;8.480;2023-07-08T07:19:17;5.63;;;1.98;;
19006;SDS011;9636;47.382;8.480;2023-07-08T07:21:46;3.47;;;2.10;;
19006;SDS011;9636;47.382;8.480;2023-07-08T07:24:13;4.53;;;2.45;;
19006;SDS011;9636;47.382;8.480;2023-07-08T07:26:40;2.20;;;1.90;;
19006;SDS011;9636;47.382;8.480;2023-07-08T07:29:07;2.42;;;2.00;;
19006;SDS011;9636;47.382;8.480;2023-07-08T07:31:33;3.47;;;2.30;;
19006;SDS011;9636;47.382;8.480;2023-07-08T07:34:04;6.13;;;1.85;;
19006;SDS011;9636;47.382;8.480;2023-07-08T07:36:32;3.08;;;2.00;;
19006;SDS011;9636;47.382;8.480;2023-07-08T07:39:00;5.00;;;1.77;;
19006;SDS011;9636;47.382;8.480;2023-07-08T07:41:27;3.20;;;2.10;;
19006;SDS011;9636;47.382;8.480;2023-07-08T07:43:54;4.47;;;2.00;;
19006;SDS011;9636;47.382;8.480;2023-07-08T07:46:23;2.47;;;1.90;;
19006;SDS011;9636;47.382;8.480;2023-07-08T07:48:50;4.20;;;2.33;;
19006;SDS011;9636;47.382;8.480;2023-07-08T07:51:17;5.13;;;2.40;;
19006;SDS011;9636;47.382;8.480;2023-07-08T07:53:44;2.70;;;1.90;;
19006;SDS011;9636;47.382;8.480;2023-07-08T07:56:13;5.00;;;2.38;;
19006;SDS011;9636;47.382;8.480;2023-07-08T07:58:40;4.88;;;2.10;;
19006;SDS011;9636;47.382;8.480;2023-07-08T08:01:07;4.10;;;2.20;;
19006;SDS011;9636;47.382;8.480;2023-07-08T08:03:34;3.08;;;2.20;;
19006;SDS011;9636;47.382;8.480;2023-07-08T08:06:01;4.05;;;2.10;;
19006;SDS011;9636;47.382;8.480;2023-07-08T08:08:27;3.67;;;2.15;;
19006;SDS011;9636;47.382;8.480;2023-07-08T08:10:54;5.25;;;2.58;;
19006;SDS011;9636;47.382;8.480;2023-07-08T08:13:23;5.55;;;2.80;;
19006;SDS011;9636;47.382;8.480;2023-07-08T08:15:55;4.57;;;2.53;;
19006;SDS011;9636;47.382;8.480;2023-07-08T08:18:22;3.80;;;2.40;;
19006;SDS011;9636;47.382;8.480;2023-07-08T08:20:50;4.63;;;2.15;;
19006;SDS011;9636;47.382;8.480;2023-07-08T08:23:17;3.75;;;2.10;;
19006;SDS011;9636;47.382;8.480;2023-07-08T08:25:44;3.00;;;2.30;;
19006;SDS011;9636;47.382;8.480;2023-07-08T08:28:11;3.65;;;2.13;;
19006;SDS011;9636;47.382;8.480;2023-07-08T08:30:40;6.55;;;2.45;;
19006;SDS011;9636;47.382;8.480;2023-07-08T08:33:08;4.88;;;2.50;;
19006;SDS011;9636;47.382;8.480;2023-07-08T08:35:34;5.03;;;2.53;;
19006;SDS011;9636;47.382;8.480;2023-07-08T08:38:02;4.90;;;2.33;;
19006;SDS011;9636;47.382;8.480;2023-07-08T08:40:29;3.38;;;2.33;;
19006;SDS011;9636;47.382;8.480;2023-07-08T08:42:57;5.18;;;2.60;;
19006;SDS011;9636;47.382;8.480;2023-07-08T08:45:28;2.88;;;2.30;;
19006;SDS011;9636;47.382;8.480;2023-07-08T08:48:05;3.92;;;2.60;;
19006;SDS011;9636;47.382;8.480;2023-07-08T08:50:38;2.67;;;2.05;;
19006;SDS011;9636;47.382;8.480;2023-07-08T08:53:11;5.13;;;2.38;;
19006;SDS011;9636;47.382;8.480;2023-07-08T08:55:40;3.75;;;2.00;;
19006;SDS011;9636;47.382;8.480;2023-07-08T08:58:11;6.03;;;2.40;;
19006;SDS011;9636;47.382;8.480;2023-07-08T09:00:46;3.38;;;2.40;;
19006;SDS011;9636;47.382;8.480;2023-07-08T09:03:24;4.30;;;2.58;;
19006;SDS011;9636;47.382;8.480;2023-07-08T09:06:08;7.80;;;2.70;;
19006;SDS011;9636;47.382;8.480;2023-07-08T09:08:40;6.25;;;2.80;;
19006;SDS011;9636;47.382;8.480;2023-07-08T09:11:14;7.35;;;2.75;;
19006;SDS011;9636;47.382;8.480;2023-07-08T09:13:49;4.95;;;2.10;;
19006;SDS011;9636;47.382;8.480;2023-07-08T09:16:20;3.90;;;2.30;;
19006;SDS011;9636;47.382;8.480;2023-07-08T09:18:56;6.03;;;2.47;;
19006;SDS011;9636;47.382;8.480;2023-07-08T09:21:26;4.57;;;2.30;;
19006;SDS011;9636;47.382;8.480;2023-07-08T09:23:59;4.03;;;2.55;;
19006;SDS011;9636;47.382;8.480;2023-07-08T09:26:31;4.45;;;2.42;;
19006;SDS011;9636;47.382;8.480;2023-07-08T09:28:59;4.68;;;2.35;;
19006;SDS011;9636;47.382;8.480;2023-07-08T09:31:30;3.53;;;2.60;;
19006;SDS011;9636;47.382;8.480;2023-07-08T09:34:14;4.80;;;2.50;;
19006;SDS011;9636;47.382;8.480;2023-07-08T09:36:46;3.75;;;2.55;;
19006;SDS011;9636;47.382;8.480;2023-07-08T09:39:20;4.93;;;2.38;;
19006;SDS011;9636;47.382;8.480;2023-07-08T09:41:48;5.35;;;2.50;;
19006;SDS011;9636;47.382;8.480;2023-07-08T09:44:17;4.65;;;2.63;;
19006;SDS011;9636;47.382;8.480;2023-07-08T09:46:51;4.15;;;2.47;;
19006;SDS011;9636;47.382;8.480;2023-07-08T09:52:01;3.25;;;2.05;;
19006;SDS011;9636;47.382;8.480;2023-07-08T09:54:31;3.33;;;2.33;;
19006;SDS011;9636;47.382;8.480;2023-07-08T09:57:01;3.45;;;2.60;;
19006;SDS011;9636;47.382;8.480;2023-07-08T09:59:37;6.25;;;2.60;;
19006;SDS011;9636;47.382;8.480;2023-07-08T10:02:18;3.83;;;2.42;;
19006;SDS011;9636;47.382;8.480;2023-07-08T10:04:56;3.83;;;2.72;;
19006;SDS011;9636;47.382;8.480;2023-07-08T10:07:27;4.68;;;2.33;;
19006;SDS011;9636;47.382;8.480;2023-07-08T10:09:57;3.30;;;2.53;;
19006;SDS011;9636;47.382;8.480;2023-07-08T10:12:26;5.40;;;2.65;;
19006;SDS011;9636;47.382;8.480;2023-07-08T10:14:56;3.33;;;2.28;;
19006;SDS011;9636;47.382;8.480;2023-07-08T10:17:31;3.35;;;2.15;;
19006;SDS011;9636;47.382;8.480;2023-07-08T10:20:07;4.78;;;2.30;;
19006;SDS011;9636;47.382;8.480;2023-07-08T10:22:38;3.47;;;2.50;;
19006;SDS011;9636;47.382;8.480;2023-07-08T10:25:16;3.60;;;2.38;;
19006;SDS011;9636;47.382;8.480;2023-07-08T10:31:08;3.65;;;2.47;;
19006;SDS011;9636;47.382;8.480;2023-07-08T10:36:42;3.42;;;2.20;;
19006;SDS011;9636;47.382;8.480;2023-07-08T10:39:18;4.80;;;2.45;;
19006;SDS011;9636;47.382;8.480;2023-07-08T10:42:09;3.47;;;2.17;;
19006;SDS011;9636;47.382;8.480;2023-07-08T10:44:46;4.13;;;2.35;;
19006;SDS011;9636;47.382;8.480;2023-07-08T10:47:27;5.55;;;2.55;;
19006;SDS011;9636;47.382;8.480;2023-07-08T10:50:08;2.50;;;2.10;;
19006;SDS011;9636;47.382;8.480;2023-07-08T10:52:48;4.57;;;2.50;;
19006;SDS011;9636;47.382;8.480;2023-07-08T10:55:28;4.35;;;2.58;;
19006;SDS011;9636;47.382;8.480;2023-07-08T10:58:12;4.38;;;2.22;;
19006;SDS011;9636;47.382;8.480;2023-07-08T11:01:07;5.30;;;2.47;;
19006;SDS011;9636;47.382;8.480;2023-07-08T11:06:41;4.35;;;3.00;;
19006;SDS011;9636;47.382;8.480;2023-07-08T11:09:15;6.05;;;2.38;;
19006;SDS011;9636;47.382;8.480;2023-07-08T11:11:49;3.28;;;2.58;;
19006;SDS011;9636;47.382;8.480;2023-07-08T11:14:22;4.35;;;3.00;;
19006;SDS011;9636;47.382;8.480;2023-07-08T11:16:53;11.25;;;3.00;;
19006;SDS011;9636;47.382;8.480;2023-07-08T11:19:29;5.70;;;2.90;;
19006;SDS011;9636;47.382;8.480;2023-07-08T11:22:02;6.25;;;3.05;;
19006;SDS011;9636;47.382;8.480;2023-07-08T11:24:37;3.50;;;2.50;;
19006;SDS011;9636;47.382;8.480;2023-07-08T11:27:10;5.15;;;2.80;;
19006;SDS011;9636;47.382;8.480;2023-07-08T11:29:45;5.50;;;2.70;;
19006;SDS011;9636;47.382;8.480;2023-07-08T11:32:16;5.75;;;2.60;;
19006;SDS011;9636;47.382;8.480;2023-07-08T11:34:46;5.28;;;3.13;;
19006;SDS011;9636;47.382;8.480;2023-07-08T11:37:16;4.82;;;2.95;;
19006;SDS011;9636;47.382;8.480;2023-07-08T11:39:52;3.85;;;2.97;;
19006;SDS011;9636;47.382;8.480;2023-07-08T11:42:21;4.45;;;3.20;;
19006;SDS011;9636;47.382;8.480;2023-07-08T11:44:52;5.22;;;3.10;;
19006;SDS011;9636;47.382;8.480;2023-07-08T11:47:24;3.25;;;2.58;;
19006;SDS011;9636;47.382;8.480;2023-07-08T11:49:58;6.15;;;2.60;;
19006;SDS011;9636;47.382;8.480;2023-07-08T11:52:25;6.25;;;3.17;;
19006;SDS011;9636;47.382;8.480;2023-07-08T11:54:57;3.97;;;3.00;;
19006;SDS011;9636;47.382;8.480;2023-07-08T11:57:29;4.47;;;3.20;;
19006;SDS011;9636;47.382;8.480;2023-07-08T12:02:46;3.60;;;2.90;;
19006;SDS011;9636;47.382;8.480;2023-07-08T12:05:14;4.75;;;2.85;;
19006;SDS011;9636;47.382;8.480;2023-07-08T12:07:41;3.35;;;2.72;;
19006;SDS011;9636;47.382;8.480;2023-07-08T12:10:15;4.38;;;2.83;;
19006;SDS011;9636;47.382;8.480;2023-07-08T12:12:45;4.60;;;2.83;;
19006;SDS011;9636;47.382;8.480;2023-07-08T12:15:14;4.97;;;3.20;;
19006;SDS011;9636;47.382;8.480;2023-07-08T12:17:47;4.55;;;2.72;;
19006;SDS011;9636;47.382;8.480;2023-07-08T12:20:18;4.22;;;2.80;;
19006;SDS011;9636;47.382;8.480;2023-07-08T12:22:48;3.78;;;2.60;;
19006;SDS011;9636;47.382;8.480;2023-07-08T12:25:18;3.50;;;2.65;;
19006;SDS011;9636;47.382;8.480;2023-07-08T12:27:47;4.07;;;2.90;;
19006;SDS011;9636;47.382;8.480;2023-07-08T12:30:14;3.53;;;2.58;;
19006;SDS011;9636;47.382;8.480;2023-07-08T12:32:42;4.72;;;2.63;;
19006;SDS011;9636;47.382;8.480;2023-07-08T12:35:14;4.05;;;2.70;;
19006;SDS011;9636;47.382;8.480;2023-07-08T12:37:47;3.80;;;2.70;;
19006;SDS011;9636;47.382;8.480;2023-07-08T12:40:14;3.45;;;2.70;;
19006;SDS011;9636;47.382;8.480;2023-07-08T12:42:43;4.93;;;2.78;;
19006;SDS011;9636;47.382;8.480;2023-07-08T12:45:12;3.60;;;2.90;;
19006;SDS011;9636;47.382;8.480;2023-07-08T12:47:42;3.38;;;3.00;;
19006;SDS011;9636;47.382;8.480;2023-07-08T12:50:10;4.30;;;2.80;;
19006;SDS011;9636;47.382;8.480;2023-07-08T12:52:38;3.35;;;2.55;;
19006;SDS011;9636;47.382;8.480;2023-07-08T12:55:07;7.78;;;3.03;;
19006;SDS011;9636;47.382;8.480;2023-07-08T12:57:35;2.95;;;2.42;;
19006;SDS011;9636;47.382;8.480;2023-07-08T13:00:05;3.70;;;2.65;;
19006;SDS011;9636;47.382;8.480;2023-07-08T13:02:37;3.15;;;2.58;;
19006;SDS011;9636;47.382;8.480;2023-07-08T13:05:05;3.95;;;3.05;;
19006;SDS011;9636;47.382;8.480;2023-07-08T13:07:34;4.05;;;2.88;;
19006;SDS011;9636;47.382;8.480;2023-07-08T13:10:04;4.85;;;2.75;;
19006;SDS011;9636;47.382;8.480;2023-07-08T13:12:33;5.13;;;3.17;;
19006;SDS011;9636;47.382;8.480;2023-07-08T13:15:05;5.68;;;3.13;;
19006;SDS011;9636;47.382;8.480;2023-07-08T13:17:38;4.68;;;3.10;;
19006;SDS011;9636;47.382;8.480;2023-07-08T13:20:07;2.92;;;2.63;;
19006;SDS011;9636;47.382;8.480;2023-07-08T13:22:39;4.18;;;2.90;;
19006;SDS011;9636;47.382;8.480;2023-07-08T13:25:12;3.55;;;2.80;;
19006;SDS011;9636;47.382;8.480;2023-07-08T13:27:41;3.63;;;2.90;;
19006;SDS011;9636;47.382;8.480;2023-07-08T13:30:23;3.38;;;2.78;;
19006;SDS011;9636;47.382;8.480;2023-07-08T13:32:51;4.40;;;3.03;;
19006;SDS011;9636;47.382;8.480;2023-07-08T13:35:23;4.47;;;3.05;;
19006;SDS011;9636;47.382;8.480;2023-07-08T13:37:51;4.13;;;2.70;;
19006;SDS011;9636;47.382;8.480;2023-07-08T13:40:19;3.28;;;2.83;;
19006;SDS011;9636;47.382;8.480;2023-07-08T13:42:47;4.15;;;3.08;;
19006;SDS011;9636;47.382;8.480;2023-07-08T13:45:15;3.58;;;2.92;;
19006;SDS011;9636;47.382;8.480;2023-07-08T13:47:58;2.83;;;2.50;;
19006;SDS011;9636;47.382;8.480;2023-07-08T13:50:38;4.93;;;2.95;;
19006;SDS011;9636;47.382;8.480;2023-07-08T13:53:18;4.07;;;2.50;;
19006;SDS011;9636;47.382;8.480;2023-07-08T13:55:55;5.93;;;3.00;;
19006;SDS011;9636;47.382;8.480;2023-07-08T13:58:25;4.65;;;2.90;;
19006;SDS011;9636;47.382;8.480;2023-07-08T14:00:54;3.38;;;2.65;;
19006;SDS011;9636;47.382;8.480;2023-07-08T14:03:23;3.78;;;2.80;;
19006;SDS011;9636;47.382;8.480;2023-07-08T14:05:51;3.05;;;2.50;;
19006;SDS011;9636;47.382;8.480;2023-07-08T14:08:18;4.88;;;2.80;;
19006;SDS011;9636;47.382;8.480;2023-07-08T14:10:47;3.22;;;2.92;;
19006;SDS011;9636;47.382;8.480;2023-07-08T14:13:14;4.93;;;2.67;;
19006;SDS011;9636;47.382;8.480;2023-07-08T14:15:42;3.92;;;2.65;;
19006;SDS011;9636;47.382;8.480;2023-07-08T14:18:10;3.45;;;2.70;;
19006;SDS011;9636;47.382;8.480;2023-07-08T14:20:38;2.42;;;2.22;;
19006;SDS011;9636;47.382;8.480;2023-07-08T14:23:07;3.40;;;2.90;;
19006;SDS011;9636;47.382;8.480;2023-07-08T14:25:37;3.83;;;2.67;;
19006;SDS011;9636;47.382;8.480;2023-07-08T14:28:05;3.05;;;2.75;;
19006;SDS011;9636;47.382;8.480;2023-07-08T14:30:32;3.53;;;2.85;;
19006;SDS011;9636;47.382;8.480;2023-07-08T14:33:00;3.60;;;2.60;;
19006;SDS011;9636;47.382;8.480;2023-07-08T14:35:27;3.78;;;2.97;;
19006;SDS011;9636;47.382;8.480;2023-07-08T14:37:56;4.03;;;3.00;;
19006;SDS011;9636;47.382;8.480;2023-07-08T14:40:25;3.30;;;2.55;;
19006;SDS011;9636;47.382;8.480;2023-07-08T14:42:56;4.22;;;2.80;;
19006;SDS011;9636;47.382;8.480;2023-07-08T14:45:26;3.83;;;3.00;;
19006;SDS011;9636;47.382;8.480;2023-07-08T14:47:55;3.25;;;2.65;;
19006;SDS011;9636;47.382;8.480;2023-07-08T14:50:22;4.35;;;2.50;;
19006;SDS011;9636;47.382;8.480;2023-07-08T14:52:50;3.15;;;2.58;;
19006;SDS011;9636;47.382;8.480;2023-07-08T14:55:19;4.82;;;2.80;;
19006;SDS011;9636;47.382;8.480;2023-07-08T14:57:46;3.90;;;2.72;;
19006;SDS011;9636;47.382;8.480;2023-07-08T15:00:15;4.55;;;3.10;;
19006;SDS011;9636;47.382;8.480;2023-07-08T15:02:45;5.05;;;2.88;;
19006;SDS011;9636;47.382;8.480;2023-07-08T15:05:14;3.80;;;2.70;;
19006;SDS011;9636;47.382;8.480;2023-07-08T15:07:43;4.40;;;2.80;;
19006;SDS011;9636;47.382;8.480;2023-07-08T15:10:10;3.00;;;2.60;;
19006;SDS011;9636;47.382;8.480;2023-07-08T15:12:38;4.55;;;3.03;;
19006;SDS011;9636;47.382;8.480;2023-07-08T15:15:09;3.25;;;2.80;;
19006;SDS011;9636;47.382;8.480;2023-07-08T15:17:41;3.67;;;2.75;;
19006;SDS011;9636;47.382;8.480;2023-07-08T15:20:12;5.30;;;2.88;;
19006;SDS011;9636;47.382;8.480;2023-07-08T15:22:43;5.22;;;2.83;;
19006;SDS011;9636;47.382;8.480;2023-07-08T15:25:10;4.75;;;2.97;;
19006;SDS011;9636;47.382;8.480;2023-07-08T15:27:40;3.88;;;2.83;;
19006;SDS011;9636;47.382;8.480;2023-07-08T15:30:14;6.97;;;3.22;;